Zeus — WDC2598 — position and weather

sailwx.info

Track history (hours):
 
Tides and Currents Weather Stations Pressure Air Temp Water Temp Dewpoint Dewpoint Depression Visibility Wind Speed Wind Dir Waves Ship Positions

Zeus

Owner: Kirby Inland Marine, LP, Houston, TX. More information available from US FCC via Universal Licensing System and Coast Guard Vessel Documentation Center.

Last reported at 2017-Nov-14 05:46 UTC. Time now 2017-Nov-24 15:15 UTC.
Position N 32°44' W 091°05'.
Warning: this ship's position is 10 days out of date.

Length 202 m; draft 3 m.

Type: . MMSI: 366995430.

Date/timePositionNaut miles runAvg speedWind from/ knotsBaromVisibWave heightAir tempDewpointWater temp
2017-Nov-14 05:46N 32°44' W 091°05'5 3.1
2017-Nov-14 04:16N 32°40' W 091°08'3 4.8
2017-Nov-14 03:42N 32°38' W 091°09'0 1.7
2017-Nov-14 03:30N 32°38' W 091°09'1 1.4
2017-Nov-14 03:00N 32°37' W 091°09'2 4.7
2017-Nov-14 02:30N 32°35' W 091°07'2 4.6
2017-Nov-14 02:00N 32°33' W 091°06'3 5.0
2017-Nov-14 01:30N 32°31' W 091°07'3 5.1
2017-Nov-14 01:00N 32°28' W 091°06'3 5.1
2017-Nov-14 00:30N 32°27' W 091°04'2 4.9
2017-Nov-14 00:00N 32°26' W 091°01'2 4.2
2017-Nov-13 23:30N 32°24' W 090°59'2 4.5
2017-Nov-13 23:00N 32°22' W 091°00'2 4.4
2017-Nov-13 22:30N 32°21' W 090°58'2 5.0
2017-Nov-13 22:00N 32°21' W 090°55'  
2017-Nov-08 08:46N 32°01' W 091°05'5 8.5
2017-Nov-08 08:10N 32°06' W 091°06'1 9.5
2017-Nov-08 08:00N 32°07' W 091°07'4 8.6
2017-Nov-08 07:30N 32°07' W 091°02'5 9.3
2017-Nov-08 07:01N 32°12' W 090°60'5 9.7
2017-Nov-08 06:30N 32°16' W 090°58'5 9.4
2017-Nov-08 06:00N 32°20' W 090°54'4 8.4
2017-Nov-08 05:31N 32°21' W 090°59'4 8.0
2017-Nov-08 05:00N 32°25' W 090°60'4 8.9
2017-Nov-08 04:30N 32°27' W 091°04'4 8.6
2017-Nov-08 04:00N 32°31' W 091°07'4 8.7
2017-Nov-08 03:30N 32°35' W 091°07'5 9.2
2017-Nov-08 02:59N 32°40' W 091°08'  
Track history (hours):
 
Tides and Currents Weather Stations Pressure Air Temp Water Temp Dewpoint Dewpoint Depression Visibility Wind Speed Wind Dir Waves Ship Positions

Zeus

Owner: Kirby Inland Marine, LP, Houston, TX. More information available from US FCC via Universal Licensing System and Coast Guard Vessel Documentation Center.

Last reported at 2017-Nov-14 05:46 UTC. Time now 2017-Nov-24 15:15 UTC.
Position N 32°44' W 091°05'.
Warning: this ship's position is 10 days out of date.

Length 202 m; draft 3 m.

Type: . MMSI: 366995430.

Date/timePositionNaut miles runAvg speedWind from/ knotsBaromVisibWave heightAir tempDewpointWater temp
2017-Nov-14 05:46N 32°44' W 091°05'5 3.1
2017-Nov-14 04:16N 32°40' W 091°08'3 4.8
2017-Nov-14 03:42N 32°38' W 091°09'0 1.7
2017-Nov-14 03:30N 32°38' W 091°09'1 1.4
2017-Nov-14 03:00N 32°37' W 091°09'2 4.7
2017-Nov-14 02:30N 32°35' W 091°07'2 4.6
2017-Nov-14 02:00N 32°33' W 091°06'3 5.0
2017-Nov-14 01:30N 32°31' W 091°07'3 5.1
2017-Nov-14 01:00N 32°28' W 091°06'3 5.1
2017-Nov-14 00:30N 32°27' W 091°04'2 4.9
2017-Nov-14 00:00N 32°26' W 091°01'2 4.2
2017-Nov-13 23:30N 32°24' W 090°59'2 4.5
2017-Nov-13 23:00N 32°22' W 091°00'2 4.4
2017-Nov-13 22:30N 32°21' W 090°58'2 5.0
2017-Nov-13 22:00N 32°21' W 090°55'  
2017-Nov-08 08:46N 32°01' W 091°05'5 8.5
2017-Nov-08 08:10N 32°06' W 091°06'1 9.5
2017-Nov-08 08:00N 32°07' W 091°07'4 8.6
2017-Nov-08 07:30N 32°07' W 091°02'5 9.3
2017-Nov-08 07:01N 32°12' W 090°60'5 9.7
2017-Nov-08 06:30N 32°16' W 090°58'5 9.4
2017-Nov-08 06:00N 32°20' W 090°54'4 8.4
2017-Nov-08 05:31N 32°21' W 090°59'4 8.0
2017-Nov-08 05:00N 32°25' W 090°60'4 8.9
2017-Nov-08 04:30N 32°27' W 091°04'4 8.6
2017-Nov-08 04:00N 32°31' W 091°07'4 8.7
2017-Nov-08 03:30N 32°35' W 091°07'5 9.2
2017-Nov-08 02:59N 32°40' W 091°08'  

Dump ship's entire track history